sensor_id;sensor_type;location;lat;lon;timestamp;pressure;altitude;pressure_sealevel;temperature;humidity
34297;BME280;20564;42.902;25.336;2023-11-18T00:00:08;96425.09;;;7.93;100.00
34297;BME280;20564;42.902;25.336;2023-11-18T00:02:39;96423.97;;;7.95;100.00
34297;BME280;20564;42.902;25.336;2023-11-18T00:05:07;96427.16;;;7.89;100.00
34297;BME280;20564;42.902;25.336;2023-11-18T00:07:34;96420.44;;;7.87;100.00
34297;BME280;20564;42.902;25.336;2023-11-18T00:10:01;96404.84;;;7.85;100.00
34297;BME280;20564;42.902;25.336;2023-11-18T00:12:28;96393.69;;;7.83;100.00
34297;BME280;20564;42.902;25.336;2023-11-18T00:14:55;96398.66;;;7.86;100.00
34297;BME280;20564;42.902;25.336;2023-11-18T00:17:22;96411.34;;;7.81;100.00
34297;BME280;20564;42.902;25.336;2023-11-18T00:19:49;96417.69;;;7.79;100.00
34297;BME280;20564;42.902;25.336;2023-11-18T00:22:16;96423.78;;;7.79;100.00
34297;BME280;20564;42.902;25.336;2023-11-18T00:24:46;96429.56;;;7.83;100.00
34297;BME280;20564;42.902;25.336;2023-11-18T00:27:14;96432.56;;;7.88;100.00
34297;BME280;20564;42.902;25.336;2023-11-18T00:29:41;96426.50;;;7.87;100.00
34297;BME280;20564;42.902;25.336;2023-11-18T00:32:10;96440.25;;;7.89;100.00
34297;BME280;20564;42.902;25.336;2023-11-18T00:34:38;96441.25;;;7.88;100.00
34297;BME280;20564;42.902;25.336;2023-11-18T00:37:05;96437.41;;;7.83;100.00
34297;BME280;20564;42.902;25.336;2023-11-18T00:39:32;96437.09;;;7.86;100.00
34297;BME280;20564;42.902;25.336;2023-11-18T00:42:01;96428.69;;;7.82;100.00
34297;BME280;20564;42.902;25.336;2023-11-18T00:44:29;96436.72;;;7.81;100.00
34297;BME280;20564;42.902;25.336;2023-11-18T00:46:56;96449.53;;;7.74;100.00
34297;BME280;20564;42.902;25.336;2023-11-18T00:49:24;96457.41;;;7.74;100.00
34297;BME280;20564;42.902;25.336;2023-11-18T00:51:52;96462.91;;;7.71;100.00
34297;BME280;20564;42.902;25.336;2023-11-18T00:54:19;96462.38;;;7.77;100.00
34297;BME280;20564;42.902;25.336;2023-11-18T00:56:46;96447.34;;;7.79;100.00
34297;BME280;20564;42.902;25.336;2023-11-18T00:59:13;96437.25;;;7.84;100.00
34297;BME280;20564;42.902;25.336;2023-11-18T01:01:40;96433.00;;;7.83;100.00
34297;BME280;20564;42.902;25.336;2023-11-18T01:04:07;96417.38;;;7.91;100.00
34297;BME280;20564;42.902;25.336;2023-11-18T01:06:34;96421.25;;;7.87;100.00
34297;BME280;20564;42.902;25.336;2023-11-18T01:09:01;96424.53;;;7.89;100.00
34297;BME280;20564;42.902;25.336;2023-11-18T01:11:28;96420.97;;;7.90;100.00
34297;BME280;20564;42.902;25.336;2023-11-18T01:14:02;96437.25;;;7.84;100.00
34297;BME280;20564;42.902;25.336;2023-11-18T01:16:36;96443.31;;;7.85;100.00
34297;BME280;20564;42.902;25.336;2023-11-18T01:19:03;96447.59;;;7.86;100.00
34297;BME280;20564;42.902;25.336;2023-11-18T01:21:29;96451.59;;;7.80;100.00
34297;BME280;20564;42.902;25.336;2023-11-18T01:23:56;96437.00;;;7.78;100.00
34297;BME280;20564;42.902;25.336;2023-11-18T01:26:23;96439.78;;;7.66;100.00
34297;BME280;20564;42.902;25.336;2023-11-18T01:28:50;96429.88;;;7.51;100.00
34297;BME280;20564;42.902;25.336;2023-11-18T01:31:17;96435.53;;;7.46;100.00
34297;BME280;20564;42.902;25.336;2023-11-18T01:33:44;96410.72;;;7.31;100.00
34297;BME280;20564;42.902;25.336;2023-11-18T01:36:13;96411.44;;;7.23;100.00
34297;BME280;20564;42.902;25.336;2023-11-18T01:38:41;96406.19;;;7.23;100.00
34297;BME280;20564;42.902;25.336;2023-11-18T01:41:08;96402.91;;;7.21;100.00
34297;BME280;20564;42.902;25.336;2023-11-18T01:43:35;96405.91;;;7.26;100.00
34297;BME280;20564;42.902;25.336;2023-11-18T01:46:05;96406.63;;;7.18;100.00
34297;BME280;20564;42.902;25.336;2023-11-18T01:48:37;96417.50;;;7.14;100.00
34297;BME280;20564;42.902;25.336;2023-11-18T01:51:05;96426.03;;;7.16;100.00
34297;BME280;20564;42.902;25.336;2023-11-18T01:53:36;96440.63;;;7.09;100.00
34297;BME280;20564;42.902;25.336;2023-11-18T01:56:04;96445.31;;;7.15;100.00
34297;BME280;20564;42.902;25.336;2023-11-18T01:58:33;96431.53;;;7.13;100.00
34297;BME280;20564;42.902;25.336;2023-11-18T02:01:03;96415.81;;;7.13;100.00
34297;BME280;20564;42.902;25.336;2023-11-18T02:03:35;96405.09;;;7.16;100.00
34297;BME280;20564;42.902;25.336;2023-11-18T02:06:03;96420.94;;;7.14;100.00
34297;BME280;20564;42.902;25.336;2023-11-18T02:08:34;96441.44;;;7.09;100.00
34297;BME280;20564;42.902;25.336;2023-11-18T02:11:32;96449.19;;;7.11;100.00
34297;BME280;20564;42.902;25.336;2023-11-18T02:14:09;96458.56;;;7.13;100.00
34297;BME280;20564;42.902;25.336;2023-11-18T02:16:40;96461.56;;;7.18;100.00
34297;BME280;20564;42.902;25.336;2023-11-18T02:19:12;96466.00;;;7.18;100.00
34297;BME280;20564;42.902;25.336;2023-11-18T02:21:43;96472.59;;;7.22;100.00
34297;BME280;20564;42.902;25.336;2023-11-18T02:24:24;96469.28;;;7.20;100.00
34297;BME280;20564;42.902;25.336;2023-11-18T02:26:51;96466.25;;;7.15;100.00
34297;BME280;20564;42.902;25.336;2023-11-18T02:29:18;96466.25;;;7.15;100.00
34297;BME280;20564;42.902;25.336;2023-11-18T02:31:47;96466.53;;;7.12;100.00
34297;BME280;20564;42.902;25.336;2023-11-18T02:34:27;96463.09;;;7.11;100.00
34297;BME280;20564;42.902;25.336;2023-11-18T02:36:57;96459.66;;;7.11;100.00
34297;BME280;20564;42.902;25.336;2023-11-18T02:39:39;96469.78;;;6.94;100.00
34297;BME280;20564;42.902;25.336;2023-11-18T02:42:07;96461.94;;;6.94;100.00
34297;BME280;20564;42.902;25.336;2023-11-18T02:44:38;96460.31;;;6.93;100.00
34297;BME280;20564;42.902;25.336;2023-11-18T02:47:05;96461.53;;;6.89;100.00
34297;BME280;20564;42.902;25.336;2023-11-18T02:49:34;96454.09;;;6.85;100.00
34297;BME280;20564;42.902;25.336;2023-11-18T02:52:02;96465.78;;;6.71;100.00
34297;BME280;20564;42.902;25.336;2023-11-18T02:54:29;96452.97;;;6.68;100.00
34297;BME280;20564;42.902;25.336;2023-11-18T02:56:59;96455.06;;;6.74;100.00
34297;BME280;20564;42.902;25.336;2023-11-18T02:59:26;96443.88;;;6.72;100.00
34297;BME280;20564;42.902;25.336;2023-11-18T03:01:56;96440.03;;;6.66;100.00
34297;BME280;20564;42.902;25.336;2023-11-18T03:04:23;96427.78;;;6.67;100.00
34297;BME280;20564;42.902;25.336;2023-11-18T03:06:50;96421.59;;;6.68;100.00
34297;BME280;20564;42.902;25.336;2023-11-18T03:09:17;96422.69;;;6.75;100.00
34297;BME280;20564;42.902;25.336;2023-11-18T03:11:45;96416.94;;;6.81;100.00
34297;BME280;20564;42.902;25.336;2023-11-18T03:14:12;96414.16;;;6.83;100.00
34297;BME280;20564;42.902;25.336;2023-11-18T03:16:39;96418.56;;;6.82;100.00
34297;BME280;20564;42.902;25.336;2023-11-18T03:19:06;96418.03;;;6.79;100.00
34297;BME280;20564;42.902;25.336;2023-11-18T03:21:36;96421.34;;;6.81;100.00
34297;BME280;20564;42.902;25.336;2023-11-18T03:24:03;96419.00;;;6.78;100.00
34297;BME280;20564;42.902;25.336;2023-11-18T03:26:30;96417.47;;;6.75;100.00
34297;BME280;20564;42.902;25.336;2023-11-18T03:28:58;96416.09;;;6.71;100.00
34297;BME280;20564;42.902;25.336;2023-11-18T03:31:25;96431.78;;;6.71;100.00
34297;BME280;20564;42.902;25.336;2023-11-18T03:33:53;96424.34;;;6.66;100.00
34297;BME280;20564;42.902;25.336;2023-11-18T03:36:20;96434.66;;;6.68;100.00
34297;BME280;20564;42.902;25.336;2023-11-18T03:38:47;96422.22;;;6.50;100.00
34297;BME280;20564;42.902;25.336;2023-11-18T03:41:16;96416.59;;;6.45;100.00
34297;BME280;20564;42.902;25.336;2023-11-18T03:43:43;96419.03;;;6.47;100.00
34297;BME280;20564;42.902;25.336;2023-11-18T03:46:10;96419.19;;;6.45;100.00
34297;BME280;20564;42.902;25.336;2023-11-18T03:48:37;96427.19;;;6.53;100.00
34297;BME280;20564;42.902;25.336;2023-11-18T03:51:04;96434.78;;;6.57;100.00
34297;BME280;20564;42.902;25.336;2023-11-18T03:53:31;96418.25;;;6.56;100.00
34297;BME280;20564;42.902;25.336;2023-11-18T03:56:00;96418.41;;;6.55;100.00
34297;BME280;20564;42.902;25.336;2023-11-18T03:58:29;96406.53;;;6.50;100.00
34297;BME280;20564;42.902;25.336;2023-11-18T04:00:56;96403.25;;;6.48;100.00
34297;BME280;20564;42.902;25.336;2023-11-18T04:03:23;96396.19;;;6.39;100.00
34297;BME280;20564;42.902;25.336;2023-11-18T04:05:51;96400.44;;;6.31;100.00
34297;BME280;20564;42.902;25.336;2023-11-18T04:08:18;96395.19;;;6.21;100.00
34297;BME280;20564;42.902;25.336;2023-11-18T04:10:45;96398.06;;;6.18;100.00
34297;BME280;20564;42.902;25.336;2023-11-18T04:13:12;96413.72;;;6.18;100.00
34297;BME280;20564;42.902;25.336;2023-11-18T04:15:39;96418.38;;;6.04;100.00
34297;BME280;20564;42.902;25.336;2023-11-18T04:18:06;96413.91;;;5.95;100.00
34297;BME280;20564;42.902;25.336;2023-11-18T04:20:33;96415.50;;;5.87;100.00
34297;BME280;20564;42.902;25.336;2023-11-18T04:23:00;96404.06;;;5.78;100.00
34297;BME280;20564;42.902;25.336;2023-11-18T04:25:27;96412.66;;;5.69;100.00
34297;BME280;20564;42.902;25.336;2023-11-18T04:27:54;96418.72;;;5.69;100.00
34297;BME280;20564;42.902;25.336;2023-11-18T04:30:21;96397.81;;;5.69;100.00
34297;BME280;20564;42.902;25.336;2023-11-18T04:32:48;96403.19;;;5.68;100.00
34297;BME280;20564;42.902;25.336;2023-11-18T04:35:15;96412.91;;;5.66;100.00
34297;BME280;20564;42.902;25.336;2023-11-18T04:37:42;96400.13;;;5.63;100.00
34297;BME280;20564;42.902;25.336;2023-11-18T04:40:10;96394.53;;;5.67;100.00
34297;BME280;20564;42.902;25.336;2023-11-18T04:42:38;96395.47;;;5.66;100.00
34297;BME280;20564;42.902;25.336;2023-11-18T04:45:06;96404.44;;;5.73;100.00
34297;BME280;20564;42.902;25.336;2023-11-18T04:47:37;96422.72;;;5.73;100.00
34297;BME280;20564;42.902;25.336;2023-11-18T04:50:08;96430.69;;;5.72;100.00
34297;BME280;20564;42.902;25.336;2023-11-18T04:52:36;96420.88;;;5.64;100.00
34297;BME280;20564;42.902;25.336;2023-11-18T04:55:04;96415.41;;;5.67;100.00
34297;BME280;20564;42.902;25.336;2023-11-18T04:57:32;96418.66;;;5.60;100.00
34297;BME280;20564;42.902;25.336;2023-11-18T05:00:01;96421.53;;;5.56;100.00
34297;BME280;20564;42.902;25.336;2023-11-18T05:02:38;96420.31;;;5.61;100.00
34297;BME280;20564;42.902;25.336;2023-11-18T05:05:05;96426.53;;;5.48;100.00
34297;BME280;20564;42.902;25.336;2023-11-18T05:07:33;96429.03;;;5.50;100.00
34297;BME280;20564;42.902;25.336;2023-11-18T05:10:01;96420.25;;;5.51;100.00
34297;BME280;20564;42.902;25.336;2023-11-18T05:12:29;96432.47;;;5.50;100.00
34297;BME280;20564;42.902;25.336;2023-11-18T05:14:57;96439.47;;;5.50;100.00
34297;BME280;20564;42.902;25.336;2023-11-18T05:17:30;96442.97;;;5.39;100.00
34297;BME280;20564;42.902;25.336;2023-11-18T05:20:08;96442.25;;;5.37;100.00
34297;BME280;20564;42.902;25.336;2023-11-18T05:22:35;96436.34;;;5.35;100.00
34297;BME280;20564;42.902;25.336;2023-11-18T05:25:15;96436.41;;;5.24;100.00
34297;BME280;20564;42.902;25.336;2023-11-18T05:27:43;96435.13;;;5.18;100.00
34297;BME280;20564;42.902;25.336;2023-11-18T05:30:17;96439.84;;;5.24;100.00
34297;BME280;20564;42.902;25.336;2023-11-18T05:32:44;96426.66;;;5.26;100.00
34297;BME280;20564;42.902;25.336;2023-11-18T05:35:12;96421.19;;;5.29;100.00
34297;BME280;20564;42.902;25.336;2023-11-18T05:37:41;96422.34;;;5.36;100.00
34297;BME280;20564;42.902;25.336;2023-11-18T05:40:09;96432.28;;;5.42;100.00
34297;BME280;20564;42.902;25.336;2023-11-18T05:42:38;96441.06;;;5.41;100.00
34297;BME280;20564;42.902;25.336;2023-11-18T05:45:08;96438.72;;;5.38;100.00
34297;BME280;20564;42.902;25.336;2023-11-18T05:47:44;96446.53;;;5.38;100.00
34297;BME280;20564;42.902;25.336;2023-11-18T05:50:11;96450.09;;;5.37;100.00
34297;BME280;20564;42.902;25.336;2023-11-18T05:52:41;96442.53;;;5.34;100.00
34297;BME280;20564;42.902;25.336;2023-11-18T05:55:09;96443.47;;;5.33;100.00
34297;BME280;20564;42.902;25.336;2023-11-18T05:57:39;96443.47;;;5.33;100.00
34297;BME280;20564;42.902;25.336;2023-11-18T06:00:07;96448.09;;;5.29;100.00
34297;BME280;20564;42.902;25.336;2023-11-18T06:02:35;96446.13;;;5.22;100.00
34297;BME280;20564;42.902;25.336;2023-11-18T06:05:06;96467.53;;;5.16;100.00
34297;BME280;20564;42.902;25.336;2023-11-18T06:07:34;96462.53;;;5.13;100.00
34297;BME280;20564;42.902;25.336;2023-11-18T06:10:02;96457.34;;;5.13;100.00
34297;BME280;20564;42.902;25.336;2023-11-18T06:12:32;96463.13;;;5.16;100.00
34297;BME280;20564;42.902;25.336;2023-11-18T06:14:59;96449.75;;;5.10;100.00
34297;BME280;20564;42.902;25.336;2023-11-18T06:17:26;96445.50;;;5.08;100.00
34297;BME280;20564;42.902;25.336;2023-11-18T06:19:56;96427.94;;;5.11;100.00
34297;BME280;20564;42.902;25.336;2023-11-18T06:22:23;96429.06;;;5.18;100.00
34297;BME280;20564;42.902;25.336;2023-11-18T06:24:52;96415.53;;;5.24;100.00
34297;BME280;20564;42.902;25.336;2023-11-18T06:27:19;96418.59;;;5.29;100.00
34297;BME280;20564;42.902;25.336;2023-11-18T06:29:49;96431.31;;;5.22;100.00
34297;BME280;20564;42.902;25.336;2023-11-18T06:32:17;96428.06;;;5.30;100.00
34297;BME280;20564;42.902;25.336;2023-11-18T06:34:44;96436.34;;;5.35;100.00
34297;BME280;20564;42.902;25.336;2023-11-18T06:37:10;96441.31;;;5.38;100.00
34297;BME280;20564;42.902;25.336;2023-11-18T06:39:41;96443.59;;;5.31;100.00
34297;BME280;20564;42.902;25.336;2023-11-18T06:42:10;96452.75;;;5.26;100.00
34297;BME280;20564;42.902;25.336;2023-11-18T06:44:38;96443.09;;;5.17;100.00
34297;BME280;20564;42.902;25.336;2023-11-18T06:47:05;96443.31;;;5.14;100.00
34297;BME280;20564;42.902;25.336;2023-11-18T06:49:33;96445.69;;;5.17;100.00
34297;BME280;20564;42.902;25.336;2023-11-18T06:52:01;96448.16;;;5.18;100.00
34297;BME280;20564;42.902;25.336;2023-11-18T06:54:31;96453.50;;;5.17;100.00
34297;BME280;20564;42.902;25.336;2023-11-18T06:56:59;96441.69;;;5.13;100.00
34297;BME280;20564;42.902;25.336;2023-11-18T06:59:26;96434.78;;;5.12;100.00
34297;BME280;20564;42.902;25.336;2023-11-18T07:01:53;96452.34;;;5.10;100.00
34297;BME280;20564;42.902;25.336;2023-11-18T07:04:20;96449.84;;;5.08;100.00
34297;BME280;20564;42.902;25.336;2023-11-18T07:06:47;96449.03;;;5.07;100.00
34297;BME280;20564;42.902;25.336;2023-11-18T07:09:15;96450.19;;;5.15;100.00
34297;BME280;20564;42.902;25.336;2023-11-18T07:11:48;96456.63;;;5.11;100.00
34297;BME280;20564;42.902;25.336;2023-11-18T07:14:15;96444.06;;;5.04;100.00
34297;BME280;20564;42.902;25.336;2023-11-18T07:16:43;96434.16;;;4.98;100.00
34297;BME280;20564;42.902;25.336;2023-11-18T07:19:12;96445.06;;;4.92;100.00
34297;BME280;20564;42.902;25.336;2023-11-18T07:21:48;96437.00;;;4.95;100.00
34297;BME280;20564;42.902;25.336;2023-11-18T07:24:16;96426.44;;;4.97;100.00
34297;BME280;20564;42.902;25.336;2023-11-18T07:26:44;96427.00;;;5.00;100.00
34297;BME280;20564;42.902;25.336;2023-11-18T07:29:12;96423.47;;;5.01;100.00
34297;BME280;20564;42.902;25.336;2023-11-18T07:31:39;96415.66;;;5.01;100.00
34297;BME280;20564;42.902;25.336;2023-11-18T07:34:06;96387.44;;;4.95;100.00
34297;BME280;20564;42.902;25.336;2023-11-18T07:36:33;96399.88;;;5.03;100.00
34297;BME280;20564;42.902;25.336;2023-11-18T07:39:00;96411.38;;;5.00;100.00
34297;BME280;20564;42.902;25.336;2023-11-18T07:41:31;96407.50;;;4.95;100.00
34297;BME280;20564;42.902;25.336;2023-11-18T07:43:59;96402.28;;;4.95;100.00
34297;BME280;20564;42.902;25.336;2023-11-18T07:46:27;96414.34;;;4.96;100.00
34297;BME280;20564;42.902;25.336;2023-11-18T07:48:58;96417.59;;;4.88;100.00
34297;BME280;20564;42.902;25.336;2023-11-18T07:51:25;96426.84;;;4.81;100.00
34297;BME280;20564;42.902;25.336;2023-11-18T07:53:52;96428.84;;;4.89;100.00
34297;BME280;20564;42.902;25.336;2023-11-18T07:56:22;96423.03;;;4.85;100.00
34297;BME280;20564;42.902;25.336;2023-11-18T07:58:50;96435.84;;;4.88;100.00
34297;BME280;20564;42.902;25.336;2023-11-18T08:01:19;96429.47;;;4.81;100.00
34297;BME280;20564;42.902;25.336;2023-11-18T08:03:48;96444.72;;;4.86;100.00
34297;BME280;20564;42.902;25.336;2023-11-18T08:06:18;96437.53;;;4.78;100.00
34297;BME280;20564;42.902;25.336;2023-11-18T08:08:44;96425.44;;;4.77;100.00
34297;BME280;20564;42.902;25.336;2023-11-18T08:11:17;96420.00;;;4.80;100.00
34297;BME280;20564;42.902;25.336;2023-11-18T08:13:44;96421.50;;;4.94;100.00
34297;BME280;20564;42.902;25.336;2023-11-18T08:16:11;96413.72;;;5.03;100.00
34297;BME280;20564;42.902;25.336;2023-11-18T08:18:40;96410.13;;;5.16;100.00
34297;BME280;20564;42.902;25.336;2023-11-18T08:21:07;96407.97;;;5.21;100.00
34297;BME280;20564;42.902;25.336;2023-11-18T08:23:34;96401.41;;;5.26;100.00
34297;BME280;20564;42.902;25.336;2023-11-18T08:26:01;96398.53;;;5.29;100.00
34297;BME280;20564;42.902;25.336;2023-11-18T08:28:31;96404.72;;;5.28;100.00
34297;BME280;20564;42.902;25.336;2023-11-18T08:30:58;96401.41;;;5.26;100.00
34297;BME280;20564;42.902;25.336;2023-11-18T08:33:25;96383.59;;;5.11;100.00
34297;BME280;20564;42.902;25.336;2023-11-18T08:35:52;96398.28;;;5.12;100.00
34297;BME280;20564;42.902;25.336;2023-11-18T08:38:19;96404.97;;;5.25;100.00
34297;BME280;20564;42.902;25.336;2023-11-18T08:40:46;96401.09;;;5.20;100.00
34297;BME280;20564;42.902;25.336;2023-11-18T08:43:15;96415.22;;;5.17;100.00
34297;BME280;20564;42.902;25.336;2023-11-18T08:45:44;96410.38;;;5.13;100.00
34297;BME280;20564;42.902;25.336;2023-11-18T08:48:11;96422.53;;;5.23;100.00
34297;BME280;20564;42.902;25.336;2023-11-18T08:50:38;96421.72;;;5.23;100.00
34297;BME280;20564;42.902;25.336;2023-11-18T08:53:10;96414.81;;;5.22;100.00
34297;BME280;20564;42.902;25.336;2023-11-18T08:55:39;96420.03;;;5.22;100.00
34297;BME280;20564;42.902;25.336;2023-11-18T08:58:12;96431.25;;;5.13;100.00
34297;BME280;20564;42.902;25.336;2023-11-18T09:00:42;96439.81;;;5.03;100.00
34297;BME280;20564;42.902;25.336;2023-11-18T09:03:13;96447.81;;;5.12;100.00
34297;BME280;20564;42.902;25.336;2023-11-18T09:06:06;96458.41;;;5.10;100.00
34297;BME280;20564;42.902;25.336;2023-11-18T09:08:46;96451.66;;;5.07;100.00
34297;BME280;20564;42.902;25.336;2023-11-18T09:11:22;96456.41;;;5.02;100.00
34297;BME280;20564;42.902;25.336;2023-11-18T09:13:50;96462.91;;;5.08;100.00
34297;BME280;20564;42.902;25.336;2023-11-18T09:16:21;96466.50;;;4.96;100.00
34297;BME280;20564;42.902;25.336;2023-11-18T09:18:49;96462.13;;;4.96;100.00
34297;BME280;20564;42.902;25.336;2023-11-18T09:21:18;96472.78;;;4.93;100.00
34297;BME280;20564;42.902;25.336;2023-11-18T09:23:52;96470.44;;;4.90;100.00
34297;BME280;20564;42.902;25.336;2023-11-18T09:26:19;96449.69;;;4.89;100.00
34297;BME280;20564;42.902;25.336;2023-11-18T09:28:48;96451.34;;;4.90;100.00
34297;BME280;20564;42.902;25.336;2023-11-18T09:31:17;96446.66;;;4.83;100.00
34297;BME280;20564;42.902;25.336;2023-11-18T09:33:44;96437.03;;;4.84;100.00
34297;BME280;20564;42.902;25.336;2023-11-18T09:36:20;96454.09;;;4.88;100.00
34297;BME280;20564;42.902;25.336;2023-11-18T09:38:48;96433.13;;;4.78;99.63
34297;BME280;20564;42.902;25.336;2023-11-18T09:41:22;96444.38;;;4.79;100.00
34297;BME280;20564;42.902;25.336;2023-11-18T09:43:51;96442.72;;;4.78;100.00
34297;BME280;20564;42.902;25.336;2023-11-18T09:46:28;96438.84;;;4.72;100.00
34297;BME280;20564;42.902;25.336;2023-11-18T09:51:43;96428.75;;;4.79;100.00
34297;BME280;20564;42.902;25.336;2023-11-18T09:54:20;96422.00;;;4.76;100.00
34297;BME280;20564;42.902;25.336;2023-11-18T09:57:00;96403.63;;;4.78;100.00
34297;BME280;20564;42.902;25.336;2023-11-18T10:00:03;96417.38;;;4.80;100.00
34297;BME280;20564;42.902;25.336;2023-11-18T10:02:54;96429.47;;;4.81;100.00
34297;BME280;20564;42.902;25.336;2023-11-18T10:05:24;96420.47;;;4.74;100.00
34297;BME280;20564;42.902;25.336;2023-11-18T10:07:56;96432.22;;;4.68;100.00
34297;BME280;20564;42.902;25.336;2023-11-18T10:10:26;96425.22;;;4.69;100.00
34297;BME280;20564;42.902;25.336;2023-11-18T10:13:04;96424.75;;;4.64;100.00
34297;BME280;20564;42.902;25.336;2023-11-18T10:15:35;96439.69;;;4.73;100.00
34297;BME280;20564;42.902;25.336;2023-11-18T10:18:02;96437.34;;;4.58;100.00
34297;BME280;20564;42.902;25.336;2023-11-18T10:23:09;96428.91;;;4.66;100.00
34297;BME280;20564;42.902;25.336;2023-11-18T10:25:50;96434.25;;;4.65;100.00
34297;BME280;20564;42.902;25.336;2023-11-18T10:28:30;96429.28;;;4.62;100.00
34297;BME280;20564;42.902;25.336;2023-11-18T10:31:03;96429.75;;;4.55;100.00
34297;BME280;20564;42.902;25.336;2023-11-18T10:33:31;96425.75;;;4.51;100.00
34297;BME280;20564;42.902;25.336;2023-11-18T10:36:00;96436.16;;;4.51;100.00
34297;BME280;20564;42.902;25.336;2023-11-18T10:38:31;96438.31;;;4.46;100.00
34297;BME280;20564;42.902;25.336;2023-11-18T10:40:58;96433.44;;;4.42;100.00
34297;BME280;20564;42.902;25.336;2023-11-18T10:43:28;96428.84;;;4.34;100.00
34297;BME280;20564;42.902;25.336;2023-11-18T10:46:07;96427.44;;;4.30;100.00
34297;BME280;20564;42.902;25.336;2023-11-18T10:48:45;96434.53;;;4.39;100.00
34297;BME280;20564;42.902;25.336;2023-11-18T10:51:17;96432.16;;;4.36;100.00
34297;BME280;20564;42.902;25.336;2023-11-18T10:53:51;96430.50;;;4.35;100.00
34297;BME280;20564;42.902;25.336;2023-11-18T10:56:30;96423.41;;;4.37;100.00
34297;BME280;20564;42.902;25.336;2023-11-18T10:59:05;96422.22;;;4.30;100.00
34297;BME280;20564;42.902;25.336;2023-11-18T11:01:35;96425.53;;;4.32;100.00
34297;BME280;20564;42.902;25.336;2023-11-18T11:04:05;96422.69;;;4.24;100.00
34297;BME280;20564;42.902;25.336;2023-11-18T11:06:33;96432.63;;;4.30;100.00
34297;BME280;20564;42.902;25.336;2023-11-18T11:09:00;96438.44;;;4.33;100.00
34297;BME280;20564;42.902;25.336;2023-11-18T11:11:39;96428.16;;;4.32;100.00
34297;BME280;20564;42.902;25.336;2023-11-18T11:14:06;96426.75;;;4.28;100.00
34297;BME280;20564;42.902;25.336;2023-11-18T11:17:27;96422.22;;;4.30;100.00
34297;BME280;20564;42.902;25.336;2023-11-18T11:19:52;96432.78;;;4.28;100.00
34297;BME280;20564;42.902;25.336;2023-11-18T11:22:36;96425.28;;;4.35;100.00
34297;BME280;20564;42.902;25.336;2023-11-18T11:25:21;96433.84;;;4.26;100.00
34297;BME280;20564;42.902;25.336;2023-11-18T11:28:06;96429.34;;;4.28;100.00
34297;BME280;20564;42.902;25.336;2023-11-18T11:30:55;96431.47;;;4.23;100.00
34297;BME280;20564;42.902;25.336;2023-11-18T11:36:04;96433.38;;;4.21;100.00
34297;BME280;20564;42.902;25.336;2023-11-18T11:38:35;96439.75;;;4.17;100.00
34297;BME280;20564;42.902;25.336;2023-11-18T11:41:07;96441.66;;;4.15;100.00
34297;BME280;20564;42.902;25.336;2023-11-18T11:43:36;96437.63;;;4.10;100.00
34297;BME280;20564;42.902;25.336;2023-11-18T11:46:03;96442.63;;;4.14;100.00
34297;BME280;20564;42.902;25.336;2023-11-18T11:48:38;96442.13;;;4.20;100.00
34297;BME280;20564;42.902;25.336;2023-11-18T11:54:29;96440.69;;;4.16;100.00
34297;BME280;20564;42.902;25.336;2023-11-18T11:56:58;96431.47;;;4.11;100.00
34297;BME280;20564;42.902;25.336;2023-11-18T12:02:24;96424.63;;;3.99;100.00
34297;BME280;20564;42.902;25.336;2023-11-18T12:04:56;96444.84;;;3.96;100.00
34297;BME280;20564;42.902;25.336;2023-11-18T12:07:26;96432.16;;;3.91;100.00
34297;BME280;20564;42.902;25.336;2023-11-18T12:09:59;96445.53;;;3.86;100.00
34297;BME280;20564;42.902;25.336;2023-11-18T12:12:27;96446.25;;;3.77;100.00
34297;BME280;20564;42.902;25.336;2023-11-18T12:14:59;96436.91;;;3.75;100.00
34297;BME280;20564;42.902;25.336;2023-11-18T12:23:11;96450.56;;;3.54;100.00
34297;BME280;20564;42.902;25.336;2023-11-18T12:25:42;96438.28;;;3.56;100.00
34297;BME280;20564;42.902;25.336;2023-11-18T12:28:18;96445.84;;;3.48;100.00
34297;BME280;20564;42.902;25.336;2023-11-18T12:30:48;96456.34;;;3.47;100.00
34297;BME280;20564;42.902;25.336;2023-11-18T12:33:19;96438.69;;;3.28;100.00
34297;BME280;20564;42.902;25.336;2023-11-18T12:41:39;96450.53;;;3.32;100.00
34297;BME280;20564;42.902;25.336;2023-11-18T12:46:54;96451.00;;;3.26;100.00
34297;BME280;20564;42.902;25.336;2023-11-18T12:49:24;96445.31;;;3.32;100.00
34297;BME280;20564;42.902;25.336;2023-11-18T12:51:53;96445.19;;;3.22;100.00
34297;BME280;20564;42.902;25.336;2023-11-18T12:54:23;96446.41;;;3.29;100.00
34297;BME280;20564;42.902;25.336;2023-11-18T12:56:56;96438.09;;;3.24;100.00
34297;BME280;20564;42.902;25.336;2023-11-18T12:59:23;96438.09;;;3.24;100.00
34297;BME280;20564;42.902;25.336;2023-11-18T13:01:51;96438.41;;;3.08;100.00
34297;BME280;20564;42.902;25.336;2023-11-18T13:04:24;96449.50;;;3.10;100.00
34297;BME280;20564;42.902;25.336;2023-11-18T13:06:52;96452.34;;;3.07;100.00
34297;BME280;20564;42.902;25.336;2023-11-18T13:09:22;96450.66;;;3.06;100.00
34297;BME280;20564;42.902;25.336;2023-11-18T13:11:57;96431.81;;;2.92;100.00
34297;BME280;20564;42.902;25.336;2023-11-18T13:14:31;96446.38;;;2.94;100.00
34297;BME280;20564;42.902;25.336;2023-11-18T13:17:04;96452.13;;;2.86;100.00
34297;BME280;20564;42.902;25.336;2023-11-18T13:19:35;96450.34;;;2.87;100.00
34297;BME280;20564;42.902;25.336;2023-11-18T13:22:05;96465.28;;;2.96;100.00
34297;BME280;20564;42.902;25.336;2023-11-18T13:24:38;96460.19;;;2.95;100.00
34297;BME280;20564;42.902;25.336;2023-11-18T13:27:15;96470.41;;;2.85;100.00
34297;BME280;20564;42.902;25.336;2023-11-18T13:29:47;96465.13;;;2.86;100.00
34297;BME280;20564;42.902;25.336;2023-11-18T13:32:20;96467.81;;;2.85;100.00